createdAt,value
2022-12-19T00:01:22.818Z,98736.94
2022-12-19T00:03:53.607Z,98737.72
2022-12-19T00:06:21.033Z,98740.47
2022-12-19T00:08:50.971Z,98752.22
2022-12-19T00:11:22.365Z,98744.41
2022-12-19T00:13:50.493Z,98755.00
2022-12-19T00:16:21.547Z,98751.84
2022-12-19T00:18:50.169Z,98749.91
2022-12-19T00:21:22.646Z,98749.47
2022-12-19T00:23:50.626Z,98732.19
2022-12-19T00:26:21.897Z,98736.09
2022-12-19T00:28:54.389Z,98733.75
2022-12-19T00:31:23.356Z,98732.19
2022-12-19T00:33:50.905Z,98727.47
2022-12-19T00:36:23.769Z,98738.47
2022-12-19T00:38:53.294Z,98729.81
2022-12-19T00:41:26.666Z,98724.72
2022-12-19T00:44:08.083Z,98729.03
2022-12-19T00:46:35.977Z,98730.59
2022-12-19T00:49:05.644Z,98732.22
2022-12-19T00:51:36.259Z,98715.69
2022-12-19T00:54:08.445Z,98722.03
2022-12-19T00:56:37.776Z,98699.25
2022-12-19T00:59:10.112Z,98697.31
2022-12-19T01:01:40.636Z,98703.19
2022-12-19T01:04:28.148Z,98709.50
2022-12-19T01:07:02.492Z,98711.06
2022-12-19T01:09:35.678Z,98709.88
2022-12-19T01:12:24.633Z,98696.13
2022-12-19T01:14:57.711Z,98707.13
2022-12-19T01:17:31.021Z,98695.31
2022-12-19T01:20:02.152Z,98691.38
2022-12-19T01:22:29.414Z,98691.38
2022-12-19T01:24:56.756Z,98700.03
2022-12-19T01:27:25.076Z,98698.88
2022-12-19T01:29:53.182Z,98708.69
2022-12-19T01:32:22.107Z,98712.63
2022-12-19T01:34:49.422Z,98722.06
2022-12-19T01:37:17.864Z,98710.28
2022-12-19T01:39:46.456Z,98716.19
2022-12-19T01:42:23.114Z,98714.19
2022-12-19T01:45:11.098Z,98711.06
2022-12-19T01:47:49.503Z,98724.81
2022-12-19T01:50:30.291Z,98713.81
2022-12-19T01:53:01.387Z,98711.44
2022-12-19T01:55:30.973Z,98703.19
2022-12-19T01:58:04.640Z,98703.19
2022-12-19T02:00:32.197Z,98692.19
2022-12-19T02:03:12.434Z,98708.66
2022-12-19T02:05:45.391Z,98706.31
2022-12-19T02:08:14.405Z,98714.94
2022-12-19T02:10:42.423Z,98722.81
2022-12-19T02:13:11.931Z,98723.59
2022-12-19T02:16:00.393Z,98696.09
2022-12-19T02:18:49.094Z,98697.66
2022-12-19T02:21:53.260Z,98713.38
2022-12-19T02:24:39.558Z,98699.19
2022-12-19T02:27:40.393Z,98678.78
2022-12-19T02:30:11.134Z,98690.56
2022-12-19T02:32:51.581Z,98676.81
2022-12-19T02:35:45.140Z,98652.88
2022-12-19T02:38:41.285Z,98664.66
2022-12-19T02:41:10.373Z,98660.75
2022-12-19T02:43:42.734Z,98663.09
2022-12-19T02:46:13.076Z,98677.63
2022-12-19T02:48:45.389Z,98681.16
2022-12-19T02:51:14.834Z,98673.28
2022-12-19T02:53:43.100Z,98685.84
2022-12-19T02:56:27.530Z,98669.38
2022-12-19T02:59:28.117Z,98685.03
2022-12-19T03:02:04.977Z,98669.31
2022-12-19T03:04:34.424Z,98683.47
2022-12-19T03:07:13.599Z,98677.59
2022-12-19T03:10:14.657Z,98675.63
2022-12-19T03:12:57.706Z,98667.75
2022-12-19T03:15:26.264Z,98676.81
2022-12-19T03:18:02.636Z,98681.53
2022-12-19T03:21:12.760Z,98674.06
2022-12-19T03:23:41.281Z,98682.28
2022-12-19T03:26:31.593Z,98673.22
2022-12-19T03:28:59.119Z,98672.47
2022-12-19T03:31:29.291Z,98672.06
2022-12-19T03:34:03.233Z,98672.47
2022-12-19T03:36:39.536Z,98667.72
2022-12-19T03:39:12.758Z,98670.09
2022-12-19T03:42:01.417Z,98671.22
2022-12-19T03:44:36.304Z,98671.59
2022-12-19T03:47:19.824Z,98670.81
2022-12-19T03:49:48.048Z,98663.72
2022-12-19T03:52:31.946Z,98668.41
2022-12-19T03:55:10.404Z,98672.31
2022-12-19T03:57:49.483Z,98666.78
2022-12-19T04:00:19.421Z,98667.91
2022-12-19T04:02:50.788Z,98666.72
2022-12-19T04:05:22.419Z,98669.13
2022-12-19T04:07:51.802Z,98668.34
2022-12-19T04:10:23.262Z,98660.84
2022-12-19T04:13:03.283Z,98670.63
2022-12-19T04:15:56.578Z,98662.75
2022-12-19T04:18:25.567Z,98650.97
2022-12-19T04:21:02.246Z,98658.41
2022-12-19T04:23:35.542Z,98656.47
2022-12-19T04:26:05.043Z,98661.22
2022-12-19T04:28:39.517Z,98663.97
2022-12-19T04:31:07.684Z,98662.84
2022-12-19T04:33:34.572Z,98649.06
2022-12-19T04:36:01.666Z,98642.38
2022-12-19T04:38:29.892Z,98641.59
2022-12-19T04:40:59.615Z,98642.81
2022-12-19T04:43:29.634Z,98640.50
2022-12-19T04:45:57.890Z,98639.28
2022-12-19T04:48:26.498Z,98659.34
2022-12-19T04:50:55.295Z,98647.53
2022-12-19T04:53:25.101Z,98640.06
2022-12-19T04:55:59.759Z,98635.00
2022-12-19T04:58:27.281Z,98636.53
2022-12-19T05:00:55.153Z,98623.22
2022-12-19T05:03:22.096Z,98623.63
2022-12-19T05:05:49.379Z,98612.66
2022-12-19T05:08:16.199Z,98619.72
2022-12-19T05:10:43.115Z,98629.94
2022-12-19T05:13:10.873Z,98608.31
2022-12-19T05:15:37.708Z,98598.88
2022-12-19T05:18:05.369Z,98594.97
2022-12-19T05:20:32.240Z,98608.72
2022-12-19T05:23:03.119Z,98616.56
2022-12-19T05:25:33.993Z,98618.09
2022-12-19T05:28:00.863Z,98616.88
2022-12-19T05:30:27.727Z,98609.38
2022-12-19T05:32:54.539Z,98605.81
2022-12-19T05:35:21.400Z,98591.22
2022-12-19T05:37:48.225Z,98603.78
2022-12-19T05:40:15.093Z,98605.31
2022-12-19T05:42:41.897Z,98586.03
2022-12-19T05:45:09.065Z,98600.16
2022-12-19T05:47:37.972Z,98598.19
2022-12-19T05:50:05.999Z,98598.97
2022-12-19T05:52:32.854Z,98610.38
2022-12-19T05:55:00.211Z,98622.56
2022-12-19T05:57:27.257Z,98628.84
2022-12-19T05:59:54.114Z,98632.78
2022-12-19T06:02:21.550Z,98626.09
2022-12-19T06:04:48.599Z,98626.88
2022-12-19T06:07:20.737Z,98631.19
2022-12-19T06:09:48.003Z,98635.16
2022-12-19T06:12:14.775Z,98635.91
2022-12-19T06:14:41.668Z,98633.59
2022-12-19T06:17:08.480Z,98622.56
2022-12-19T06:19:35.300Z,98608.41
2022-12-19T06:22:02.134Z,98598.19
2022-12-19T06:24:29.235Z,98597.78
2022-12-19T06:26:56.045Z,98600.53
2022-12-19T06:29:23.073Z,98598.16
2022-12-19T06:31:50.166Z,98609.16
2022-12-19T06:34:39.466Z,98596.97
2022-12-19T06:37:07.948Z,98591.84
2022-12-19T06:39:35.421Z,98589.44
2022-12-19T06:42:20.826Z,98595.69
2022-12-19T06:44:47.657Z,98593.31
2022-12-19T06:47:14.483Z,98598.84
2022-12-19T06:49:41.473Z,98592.16
2022-12-19T06:52:09.340Z,98582.31
2022-12-19T06:54:36.283Z,98574.41
2022-12-19T06:57:03.080Z,98579.91
2022-12-19T06:59:29.917Z,98581.47
2022-12-19T07:02:05.203Z,98572.47
2022-12-19T07:04:43.624Z,98581.13
2022-12-19T07:07:10.508Z,98588.22
2022-12-19T07:09:37.431Z,98588.22
2022-12-19T07:12:04.479Z,98598.44
2022-12-19T07:14:32.647Z,98588.22
2022-12-19T07:17:01.620Z,98584.66
2022-12-19T07:19:30.896Z,98583.84
2022-12-19T07:21:59.405Z,98593.25
2022-12-19T07:24:26.245Z,98590.09
2022-12-19T07:26:53.081Z,98601.84
2022-12-19T07:29:19.871Z,98596.38
2022-12-19T07:31:46.832Z,98597.94
2022-12-19T07:34:13.633Z,98595.94
2022-12-19T07:36:40.928Z,98597.88
2022-12-19T07:39:07.824Z,98598.59
2022-12-19T07:41:37.442Z,98597.03
2022-12-19T07:44:05.931Z,98613.94
2022-12-19T07:46:32.876Z,98603.28
2022-12-19T07:49:00.107Z,98597.03
2022-12-19T07:51:27.471Z,98606.47
2022-12-19T07:53:54.243Z,98623.00
2022-12-19T07:56:21.138Z,98612.00
2022-12-19T07:58:48.382Z,98607.25
2022-12-19T08:01:15.367Z,98619.03
2022-12-19T08:03:42.191Z,98614.69
2022-12-19T08:06:09.779Z,98616.22
2022-12-19T08:08:37.927Z,98614.19
2022-12-19T08:11:09.952Z,98620.84
2022-12-19T08:13:40.828Z,98624.38
2022-12-19T08:16:10.801Z,98633.81
2022-12-19T08:18:38.010Z,98634.56
2022-12-19T08:21:04.855Z,98626.28
2022-12-19T08:23:33.012Z,98625.06
2022-12-19T08:26:05.194Z,98628.16
2022-12-19T08:28:37.164Z,98635.94
2022-12-19T08:31:08.494Z,98637.50
2022-12-19T08:33:36.803Z,98639.06
2022-12-19T08:36:08.670Z,98638.25
2022-12-19T08:38:36.281Z,98638.63
2022-12-19T08:41:03.858Z,98638.13
2022-12-19T08:43:30.782Z,98642.06
2022-12-19T08:45:58.165Z,98642.06
2022-12-19T08:48:25.586Z,98634.16
2022-12-19T08:51:07.300Z,98637.69
2022-12-19T08:53:36.868Z,98625.88
2022-12-19T08:56:22.268Z,98626.25
2022-12-19T08:58:52.223Z,98621.16
2022-12-19T09:01:20.763Z,98613.72
2022-12-19T09:04:20.954Z,98623.13
2022-12-19T09:06:35.217Z,98614.09
2022-12-19T09:09:04.046Z,98614.44
2022-12-19T09:11:31.358Z,98609.72
2022-12-19T09:13:58.253Z,98606.56
2022-12-19T09:16:27.572Z,98614.81
2022-12-19T09:18:57.071Z,98613.97
2022-12-19T09:21:25.529Z,98611.97
2022-12-19T09:23:55.037Z,98598.91
2022-12-19T09:26:23.886Z,98603.56
2022-12-19T09:28:51.418Z,98603.94
2022-12-19T09:31:21.491Z,98599.28
2022-12-19T09:33:49.060Z,98599.63
2022-12-19T09:36:19.048Z,98606.25
2022-12-19T09:38:46.068Z,98613.28
2022-12-19T09:41:36.351Z,98614.00
2022-12-19T09:44:18.179Z,98618.00
2022-12-19T09:46:51.003Z,98604.16
2022-12-19T09:49:21.501Z,98602.19
2022-12-19T09:52:14.904Z,98592.72
2022-12-19T09:55:06.192Z,98597.00
2022-12-19T09:57:40.447Z,98591.88
2022-12-19T10:00:13.073Z,98600.53
2022-12-19T10:02:44.328Z,98598.50
2022-12-19T10:06:53.232Z,98610.59
2022-12-19T10:09:00.259Z,98609.34
2022-12-19T10:12:45.179Z,98610.06
2022-12-19T10:15:00.493Z,98596.13
2022-12-19T10:17:43.476Z,98594.16
2022-12-19T10:20:27.257Z,98598.47
2022-12-19T10:23:29.361Z,98577.59
2022-12-19T10:26:08.480Z,98584.22
2022-12-19T10:28:41.319Z,98578.72
2022-12-19T10:31:21.517Z,98577.47
2022-12-19T10:33:58.442Z,98572.31
2022-12-19T10:36:48.761Z,98562.41
2022-12-19T10:39:25.310Z,98565.88
2022-12-19T10:41:57.523Z,98554.75
2022-12-19T10:44:30.597Z,98549.53
2022-12-19T10:46:57.453Z,98547.94
2022-12-19T10:49:27.969Z,98534.13
2022-12-19T10:52:02.738Z,98537.22
2022-12-19T10:54:41.940Z,98533.69
2022-12-19T10:57:26.727Z,98541.16
2022-12-19T11:00:17.655Z,98534.78
2022-12-19T11:02:51.776Z,98540.16
2022-12-19T11:05:50.825Z,98523.25
2022-12-19T11:08:44.992Z,98537.63
2022-12-19T11:12:53.872Z,98524.50
2022-12-19T11:16:50.030Z,98525.59
2022-12-19T11:27:42.888Z,98520.41
2022-12-19T11:29:44.288Z,98502.63
2022-12-19T11:30:37.136Z,98488.53
2022-12-19T11:30:41.740Z,98504.97
2022-12-19T11:30:43.174Z,98491.44
2022-12-19T11:34:37.117Z,98471.78
2022-12-19T11:37:27.835Z,98487.06
2022-12-19T11:40:28.605Z,98489.63
2022-12-19T11:43:41.978Z,98469.41
2022-12-19T11:46:17.635Z,98463.00
2022-12-19T11:48:52.891Z,98466.03
2022-12-19T11:51:43.437Z,98459.72
2022-12-19T11:54:20.864Z,98448.66
2022-12-19T11:56:48.470Z,98432.09
2022-12-19T11:59:33.294Z,98436.59
2022-12-19T12:02:18.948Z,98446.28
2022-12-19T12:05:18.191Z,98450.59
2022-12-19T12:08:49.487Z,98443.41
2022-12-19T12:15:03.479Z,98455.19
2022-12-19T12:22:20.079Z,98445.59
2022-12-19T12:30:30.845Z,98446.72
2022-12-19T12:31:27.452Z,98447.00
2022-12-19T12:31:28.278Z,98450.50
2022-12-19T12:31:45.375Z,98451.75
2022-12-19T12:32:02.521Z,98447.31
2022-12-19T12:35:47.067Z,98455.53
2022-12-19T12:38:33.788Z,98441.44
2022-12-19T12:41:19.509Z,98431.16
2022-12-19T12:44:09.926Z,98435.81
2022-12-19T12:46:46.882Z,98425.94
2022-12-19T12:49:34.861Z,98416.34
2022-12-19T12:52:04.762Z,98409.25
2022-12-19T12:54:44.465Z,98413.94
2022-12-19T12:57:36.161Z,98399.72
2022-12-19T13:00:36.368Z,98406.81
2022-12-19T13:03:11.592Z,98410.03
2022-12-19T13:05:54.921Z,98404.47
2022-12-19T13:08:37.449Z,98394.19
2022-12-19T13:11:38.673Z,98397.31
2022-12-19T13:14:26.863Z,98389.78
2022-12-19T13:16:55.067Z,98403.19
2022-12-19T13:19:29.205Z,98401.09
2022-12-19T13:22:09.472Z,98397.13
2022-12-19T13:24:56.830Z,98386.41
2022-12-19T13:27:24.870Z,98374.09
2022-12-19T13:30:01.416Z,98374.88
2022-12-19T13:32:54.687Z,98377.22
2022-12-19T13:36:34.648Z,98375.66
2022-12-19T13:39:55.542Z,98392.25
2022-12-19T13:41:59.715Z,98390.19
2022-12-19T13:44:28.702Z,98396.94
2022-12-19T13:46:56.564Z,98405.94
2022-12-19T13:49:34.758Z,98404.16
2022-12-19T13:52:04.741Z,98413.16
2022-12-19T13:54:38.122Z,98400.00
2022-12-19T13:57:28.322Z,98386.50
2022-12-19T14:00:02.467Z,98398.00
2022-12-19T14:02:44.757Z,98394.13
2022-12-19T14:06:16.266Z,98397.22
2022-12-19T14:08:30.351Z,98393.25
2022-12-19T14:11:35.373Z,98388.59
2022-12-19T14:14:17.842Z,98391.34
2022-12-19T14:16:49.085Z,98381.50
2022-12-19T14:19:29.037Z,98386.25
2022-12-19T14:22:20.786Z,98396.53
2022-12-19T14:25:49.209Z,98384.69
2022-12-19T14:28:21.476Z,98392.56
2022-12-19T14:30:48.102Z,98389.47
2022-12-19T14:33:46.562Z,98377.69
2022-12-19T14:36:26.307Z,98393.44
2022-12-19T14:39:24.218Z,98385.13
2022-12-19T14:42:04.334Z,98384.69
2022-12-19T14:52:25.345Z,98386.59
2022-12-19T14:52:27.833Z,98391.78
2022-12-19T14:54:10.842Z,98379.16
2022-12-19T14:54:32.370Z,98371.09
2022-12-19T14:56:36.453Z,98363.22
2022-12-19T14:59:04.407Z,98365.06
2022-12-19T15:01:35.268Z,98374.38
2022-12-19T15:04:53.370Z,98368.53
2022-12-19T15:07:12.384Z,98361.06
2022-12-19T15:11:08.582Z,98350.88
2022-12-19T15:14:46.870Z,98361.94
2022-12-19T15:16:03.572Z,98348.75
2022-12-19T15:18:33.678Z,98355.06
2022-12-19T15:21:03.598Z,98363.00
2022-12-19T15:23:30.680Z,98373.25
2022-12-19T15:26:07.020Z,98357.16
2022-12-19T15:28:50.499Z,98363.78
2022-12-19T15:31:42.987Z,98357.47
2022-12-19T15:36:58.853Z,98347.28
2022-12-19T15:39:29.626Z,98340.53
2022-12-19T15:41:59.544Z,98340.88
2022-12-19T15:44:33.671Z,98332.56
2022-12-19T15:47:06.729Z,98347.63
2022-12-19T15:49:35.430Z,98339.34
2022-12-19T15:52:12.598Z,98335.44
2022-12-19T15:54:50.139Z,98341.66
2022-12-19T15:57:32.082Z,98342.44
2022-12-19T16:00:02.660Z,98335.31
2022-12-19T16:05:25.209Z,98349.88
2022-12-19T16:07:52.458Z,98339.13
2022-12-19T16:10:19.723Z,98337.56
2022-12-19T16:12:51.189Z,98339.47
2022-12-19T16:15:34.576Z,98324.50
2022-12-19T16:18:03.815Z,98316.09
2022-12-19T16:20:34.449Z,98322.50
2022-12-19T16:23:01.815Z,98309.81
2022-12-19T16:25:54.558Z,98298.25
2022-12-19T16:28:34.141Z,98299.47
2022-12-19T16:31:14.431Z,98298.72
2022-12-19T16:33:41.366Z,98290.94
2022-12-19T16:36:09.460Z,98311.78
2022-12-19T16:38:36.828Z,98312.56
2022-12-19T16:41:04.216Z,98309.03
2022-12-19T16:43:38.720Z,98314.56
2022-12-19T16:46:09.909Z,98310.66
2022-12-19T16:48:37.267Z,98302.88
2022-12-19T16:51:04.218Z,98305.91
2022-12-19T16:53:31.417Z,98284.75
2022-12-19T16:56:00.091Z,98287.28
2022-12-19T16:58:28.861Z,98280.72
2022-12-19T17:00:56.457Z,98284.63
2022-12-19T17:03:52.741Z,98288.97
2022-12-19T17:06:21.107Z,98294.56
2022-12-19T17:08:48.836Z,98306.44
2022-12-19T17:11:25.255Z,98302.09
2022-12-19T17:14:15.914Z,98299.78
2022-12-19T17:16:47.004Z,98309.19
2022-12-19T17:19:24.424Z,98292.94
2022-12-19T17:21:52.260Z,98285.50
2022-12-19T17:24:36.880Z,98282.72
2022-12-19T17:27:04.168Z,98279.97
2022-12-19T17:29:32.047Z,98269.34
2022-12-19T17:31:59.201Z,98256.81
2022-12-19T17:34:30.585Z,98263.03
2022-12-19T17:37:00.117Z,98263.13
2022-12-19T17:39:29.771Z,98270.66
2022-12-19T17:42:01.232Z,98259.59
2022-12-19T17:44:28.174Z,98268.31
2022-12-19T17:46:55.090Z,98281.06
2022-12-19T17:49:30.510Z,98296.88
2022-12-19T17:51:59.754Z,98312.03
2022-12-19T17:54:27.774Z,98313.59
2022-12-19T17:56:55.631Z,98311.25
2022-12-19T17:59:22.569Z,98312.03
2022-12-19T18:01:50.060Z,98309.69
2022-12-19T18:04:19.878Z,98312.91
2022-12-19T18:06:47.151Z,98305.81
2022-12-19T18:09:25.712Z,98312.91
2022-12-19T18:11:53.287Z,98309.00
2022-12-19T18:14:20.582Z,98309.13
2022-12-19T18:16:50.369Z,98319.41
2022-12-19T18:19:19.976Z,98328.91
2022-12-19T18:21:48.447Z,98336.13
2022-12-19T18:24:16.702Z,98321.16
2022-12-19T18:26:45.138Z,98318.47
2022-12-19T18:29:13.006Z,98316.16
2022-12-19T18:31:46.477Z,98317.78
2022-12-19T18:34:23.475Z,98326.97
2022-12-19T18:36:51.502Z,98311.25
2022-12-19T18:39:21.270Z,98319.56
2022-12-19T18:41:48.634Z,98309.00
2022-12-19T18:44:16.248Z,98301.91
2022-12-19T18:46:43.282Z,98284.22
2022-12-19T18:49:15.514Z,98294.81
2022-12-19T18:51:43.341Z,98298.09
2022-12-19T18:54:13.065Z,98289.13
2022-12-19T18:56:40.094Z,98275.81
2022-12-19T18:59:07.082Z,98293.66
2022-12-19T19:01:36.262Z,98290.53
2022-12-19T19:04:03.591Z,98298.50
2022-12-19T19:06:35.768Z,98290.72
2022-12-19T19:09:06.639Z,98294.34
2022-12-19T19:11:42.676Z,98278.97
2022-12-19T19:14:10.435Z,98274.84
2022-12-19T19:16:38.141Z,98291.50
2022-12-19T19:19:08.766Z,98297.91
2022-12-19T19:21:36.188Z,98306.28
2022-12-19T19:24:26.711Z,98314.56
2022-12-19T19:26:55.013Z,98322.09
2022-12-19T19:29:23.179Z,98316.28
2022-12-19T19:31:56.328Z,98323.38
2022-12-19T19:34:33.624Z,98304.91
2022-12-19T19:37:04.135Z,98295.38
2022-12-19T19:39:35.193Z,98282.78
2022-12-19T19:42:02.590Z,98289.09
2022-12-19T19:44:30.295Z,98293.16
2022-12-19T19:46:57.536Z,98286.41
2022-12-19T19:49:25.920Z,98297.13
2022-12-19T19:51:57.008Z,98296.34
2022-12-19T19:54:31.969Z,98306.28
2022-12-19T19:57:00.046Z,98301.28
2022-12-19T19:59:31.057Z,98301.28
2022-12-19T20:01:58.301Z,98306.44
2022-12-19T20:04:25.962Z,98308.88
2022-12-19T20:06:54.373Z,98308.50
2022-12-19T20:09:23.086Z,98302.28
2022-12-19T20:11:50.222Z,98299.16
2022-12-19T20:14:20.675Z,98306.41
2022-12-19T20:16:49.652Z,98293.47
2022-12-19T20:19:17.010Z,98294.69
2022-12-19T20:21:44.141Z,98281.72
2022-12-19T20:24:14.398Z,98290.00
2022-12-19T20:26:41.446Z,98290.78
2022-12-19T20:29:08.801Z,98282.56
2022-12-19T20:31:36.182Z,98285.34
2022-12-19T20:34:04.850Z,98280.59
2022-12-19T20:36:34.230Z,98277.47
2022-12-19T20:39:03.928Z,98272.03
2022-12-19T20:41:34.206Z,98268.94
2022-12-19T20:44:01.512Z,98256.75
2022-12-19T20:46:29.146Z,98255.97
2022-12-19T20:48:57.959Z,98251.69
2022-12-19T20:51:26.387Z,98254.16
2022-12-19T20:53:54.874Z,98257.78
2022-12-19T20:56:23.503Z,98262.16
2022-12-19T20:58:50.701Z,98267.69
2022-12-19T21:01:21.122Z,98264.59
2022-12-19T21:03:50.045Z,98259.06
2022-12-19T21:06:19.473Z,98262.16
2022-12-19T21:08:48.068Z,98265.38
2022-12-19T21:11:15.919Z,98257.50
2022-12-19T21:13:43.223Z,98251.63
2022-12-19T21:16:15.458Z,98257.16
2022-12-19T21:18:45.355Z,98266.22
2022-12-19T21:21:21.413Z,98274.94
2022-12-19T21:23:50.743Z,98276.63
2022-12-19T21:26:21.083Z,98282.16
2022-12-19T21:28:47.935Z,98279.03
2022-12-19T21:31:19.397Z,98285.34
2022-12-19T21:33:51.426Z,98288.53
2022-12-19T21:36:21.036Z,98284.22
2022-12-19T21:38:50.129Z,98287.84
2022-12-19T21:41:21.546Z,98288.66
2022-12-19T21:43:53.546Z,98283.16
2022-12-19T21:46:35.651Z,98299.00
2022-12-19T21:49:03.914Z,98305.31
2022-12-19T21:51:32.555Z,98291.94
2022-12-19T21:54:01.983Z,98283.31
2022-12-19T21:56:35.083Z,98283.31
2022-12-19T21:59:06.834Z,98283.44
2022-12-19T22:01:34.397Z,98276.38
2022-12-19T22:04:07.279Z,98273.25
2022-12-19T22:06:37.609Z,98285.50
2022-12-19T22:09:08.255Z,98278.94
2022-12-19T22:11:36.083Z,98283.25
2022-12-19T22:14:05.585Z,98287.63
2022-12-19T22:16:33.394Z,98284.94
2022-12-19T22:19:00.860Z,98299.06
2022-12-19T22:21:29.412Z,98301.41
2022-12-19T22:23:58.350Z,98299.44
2022-12-19T22:26:30.180Z,98303.75
2022-12-19T22:28:58.013Z,98295.50
2022-12-19T22:31:27.574Z,98288.03
2022-12-19T22:34:02.000Z,98285.66
2022-12-19T22:36:32.428Z,98279.72
2022-12-19T22:39:01.255Z,98283.25
2022-12-19T22:41:30.137Z,98289.25
2022-12-19T22:43:57.205Z,98281.25
2022-12-19T22:46:33.195Z,98276.59
2022-12-19T22:49:03.813Z,98278.56
2022-12-19T22:51:33.163Z,98276.66
2022-12-19T22:54:01.470Z,98284.56
2022-12-19T22:56:31.061Z,98277.16
2022-12-19T22:59:06.918Z,98289.34
2022-12-19T23:01:39.570Z,98271.72
2022-12-19T23:04:09.416Z,98269.75
2022-12-19T23:06:38.920Z,98270.53
2022-12-19T23:09:07.766Z,98267.06
2022-12-19T23:11:38.964Z,98268.59
2022-12-19T23:14:08.584Z,98264.63
2022-12-19T23:16:35.567Z,98273.69
2022-12-19T23:19:06.660Z,98266.63
2022-12-19T23:21:35.005Z,98264.63
2022-12-19T23:24:01.873Z,98269.75
2022-12-19T23:26:32.705Z,98271.31
2022-12-19T23:29:12.872Z,98258.72
2022-12-19T23:31:44.098Z,98250.44
2022-12-19T23:34:11.799Z,98247.69
2022-12-19T23:39:31.027Z,98244.91
2022-12-19T23:41:57.978Z,98250.00
2022-12-19T23:44:25.534Z,98249.25
2022-12-19T23:47:02.350Z,98266.63
2022-12-19T23:49:30.639Z,98263.59
2022-12-19T23:51:57.996Z,98261.97
2022-12-19T23:54:24.986Z,98255.16
2022-12-19T23:56:53.635Z,98258.72
2022-12-19T23:59:22.066Z,98253.53
